Seaexpressii — HO4619 — position and weather

sailwx.info

Track history (hours):
 
Tides and Currents Weather Stations Pressure Air Temp Water Temp Dewpoint Dewpoint Depression Visibility Wind Speed Wind Dir Waves Ship Positions

Seaexpressii

Last reported at 2015-Jul-03 20:33 UTC. Time now 2015-Jul-07 00:14 UTC.
Position N 26°02' W 079°33'.

Length 37 m; draft 2.1 m.

Type: Ship (hazmat cat A). MMSI: 356449000.

Date/timePositionNaut miles runAvg speedWind from/ knotsBaromVisibWave heightAir tempDewpointWater temp
2015-Jul-03 20:33N 26°02' W 079°33'9 8.9
2015-Jul-03 19:33N 26°03' W 079°42'9 8.7
2015-Jul-03 18:31N 26°04' W 079°52'9 9.3
2015-Jul-03 17:33N 26°05' W 080°02'5 5.2
2015-Jul-03 16:33N 26°04' W 080°08'0 0.0
2015-Jul-03 15:33N 26°04' W 080°08'0 0.0
2015-Jul-03 14:33N 26°04' W 080°08'0 0.0
2015-Jul-03 13:33N 26°04' W 080°08'0 0.0
2015-Jul-03 12:33N 26°04' W 080°08'0 0.0
2015-Jul-03 11:33N 26°04' W 080°08'4 4.5
2015-Jul-03 10:33N 26°04' W 080°03'1111.0
2015-Jul-03 09:33N 25°59' W 079°52'1111.1
2015-Jul-03 08:33N 25°54' W 079°41'4 0.1
2015-Jul-02 05:31N 25°51' W 079°43'7 7.3
2015-Jul-02 04:33N 25°55' W 079°50'8 8.1
2015-Jul-02 03:33N 25°60' W 079°57'9 9.1
2015-Jul-02 02:33N 26°05' W 080°05'3 3.1
2015-Jul-02 01:33N 26°04' W 080°08'0 0.0
2015-Jul-02 00:33N 26°04' W 080°08'0 0.1
2015-Jul-01 23:33N 26°04' W 080°08'0 0.0
2015-Jul-01 22:33N 26°04' W 080°08'0 0.0
2015-Jul-01 21:33N 26°04' W 080°08'0 0.0
2015-Jul-01 20:33N 26°04' W 080°08'0 0.0
2015-Jul-01 19:33N 26°04' W 080°08'0 0.0
2015-Jul-01 18:33N 26°04' W 080°08'0 0.0
2015-Jul-01 17:33N 26°04' W 080°08'0 0.0
2015-Jul-01 16:33N 26°04' W 080°08'3 3.4
2015-Jul-01 15:33N 26°05' W 080°04'1111.4
2015-Jul-01 14:33N 26°01' W 079°53'1110.8
2015-Jul-01 13:33N 25°58' W 079°41'1010.3
2015-Jul-01 12:33N 25°56' W 079°30'3110.2
2015-Jul-01 09:33N 25°47' W 078°57'  
2015-Jun-28 00:23N 25°57' W 079°33'8 9.1
2015-Jun-27 23:33N 25°59' W 079°41'9 8.9
2015-Jun-27 22:33N 26°02' W 079°51'9 8.6
2015-Jun-27 21:33N 26°04' W 080°00'7 6.5
2015-Jun-27 20:33N 26°04' W 080°07'0 0.5
2015-Jun-27 19:33N 26°04' W 080°08'0 0.0
2015-Jun-27 18:33N 26°04' W 080°08'0 0.0
2015-Jun-27 17:33N 26°04' W 080°08'0 0.0
2015-Jun-27 16:33N 26°04' W 080°08'0 0.0
2015-Jun-27 15:33N 26°04' W 080°08'0 0.0
2015-Jun-27 14:33N 26°04' W 080°08'0 0.0
2015-Jun-27 13:33N 26°04' W 080°08'0 0.0
2015-Jun-27 12:33N 26°04' W 080°08'0 0.0
2015-Jun-27 11:33N 26°04' W 080°08'6 5.9
2015-Jun-27 10:33N 26°04' W 080°01'1111.0
2015-Jun-27 09:33N 25°58' W 079°51'1111.0
2015-Jun-27 08:33N 25°53' W 079°40'1 0.1
2015-Jun-26 20:30N 25°53' W 079°39'8 8.2
2015-Jun-26 19:33N 25°56' W 079°47'8 7.8
2015-Jun-26 18:32N 26°00' W 079°54'8 7.8
2015-Jun-26 17:33N 26°04' W 080°02'5 5.4
2015-Jun-26 16:33N 26°04' W 080°08'0 0.0
2015-Jun-26 15:33N 26°04' W 080°08'0 0.0
2015-Jun-26 14:33N 26°04' W 080°08'0 0.0
2015-Jun-26 13:33N 26°04' W 080°08'0 0.0
2015-Jun-26 12:33N 26°04' W 080°08'0 0.0
2015-Jun-26 11:33N 26°04' W 080°08'4 3.6
2015-Jun-26 10:33N 26°05' W 080°04'1110.4
2015-Jun-26 09:33N 25°60' W 079°54'1110.8
2015-Jun-26 08:33N 25°55' W 079°43'1110.8
2015-Jun-26 07:33N 25°50' W 079°33'9 0.4
2015-Jun-25 06:32N 25°50' W 079°43'7 7.0
2015-Jun-25 05:33N 25°55' W 079°49'7 6.6
2015-Jun-25 04:33N 25°59' W 079°55'7 6.7
2015-Jun-25 03:33N 26°02' W 080°01'6 5.8
2015-Jun-25 02:33N 26°04' W 080°07'1 1.1
2015-Jun-25 01:33N 26°04' W 080°08'0 0.0
2015-Jun-25 00:33N 26°04' W 080°08'0 0.0
2015-Jun-24 23:33N 26°04' W 080°08'0 0.0
2015-Jun-24 22:33N 26°04' W 080°08'0 0.1
2015-Jun-24 21:33N 26°04' W 080°08'6 6.2
2015-Jun-24 20:33N 26°05' W 080°01'9 9.3
2015-Jun-24 19:33N 26°05' W 079°51'10 9.6
2015-Jun-24 18:33N 26°05' W 079°40'10 9.5
2015-Jun-24 17:33N 26°05' W 079°29'11 0.9
2015-Jun-24 05:14N 26°16' W 079°32'710.8
2015-Jun-24 04:33N 26°13' W 079°40'1110.9
2015-Jun-24 03:33N 26°10' W 079°51'1111.0
2015-Jun-24 02:33N 26°06' W 080°03'5 5.1
2015-Jun-24 01:33N 26°04' W 080°08'0 0.0
2015-Jun-24 00:33N 26°04' W 080°08'0 0.0
2015-Jun-23 23:33N 26°04' W 080°08'0 0.0
2015-Jun-23 22:33N 26°04' W 080°08'0 0.0
2015-Jun-23 21:33N 26°04' W 080°08'6 6.3
2015-Jun-23 20:33N 26°05' W 080°01'  
Track history (hours):
 
Tides and Currents Weather Stations Pressure Air Temp Water Temp Dewpoint Dewpoint Depression Visibility Wind Speed Wind Dir Waves Ship Positions

Seaexpressii

Last reported at 2015-Jul-03 20:33 UTC. Time now 2015-Jul-07 00:14 UTC.
Position N 26°02' W 079°33'.

Length 37 m; draft 2.1 m.

Type: Ship (hazmat cat A). MMSI: 356449000.

Date/timePositionNaut miles runAvg speedWind from/ knotsBaromVisibWave heightAir tempDewpointWater temp
2015-Jul-03 20:33N 26°02' W 079°33'9 8.9
2015-Jul-03 19:33N 26°03' W 079°42'9 8.7
2015-Jul-03 18:31N 26°04' W 079°52'9 9.3
2015-Jul-03 17:33N 26°05' W 080°02'5 5.2
2015-Jul-03 16:33N 26°04' W 080°08'0 0.0
2015-Jul-03 15:33N 26°04' W 080°08'0 0.0
2015-Jul-03 14:33N 26°04' W 080°08'0 0.0
2015-Jul-03 13:33N 26°04' W 080°08'0 0.0
2015-Jul-03 12:33N 26°04' W 080°08'0 0.0
2015-Jul-03 11:33N 26°04' W 080°08'4 4.5
2015-Jul-03 10:33N 26°04' W 080°03'1111.0
2015-Jul-03 09:33N 25°59' W 079°52'1111.1
2015-Jul-03 08:33N 25°54' W 079°41'4 0.1
2015-Jul-02 05:31N 25°51' W 079°43'7 7.3
2015-Jul-02 04:33N 25°55' W 079°50'8 8.1
2015-Jul-02 03:33N 25°60' W 079°57'9 9.1
2015-Jul-02 02:33N 26°05' W 080°05'3 3.1
2015-Jul-02 01:33N 26°04' W 080°08'0 0.0
2015-Jul-02 00:33N 26°04' W 080°08'0 0.1
2015-Jul-01 23:33N 26°04' W 080°08'0 0.0
2015-Jul-01 22:33N 26°04' W 080°08'0 0.0
2015-Jul-01 21:33N 26°04' W 080°08'0 0.0
2015-Jul-01 20:33N 26°04' W 080°08'0 0.0
2015-Jul-01 19:33N 26°04' W 080°08'0 0.0
2015-Jul-01 18:33N 26°04' W 080°08'0 0.0
2015-Jul-01 17:33N 26°04' W 080°08'0 0.0
2015-Jul-01 16:33N 26°04' W 080°08'3 3.4
2015-Jul-01 15:33N 26°05' W 080°04'1111.4
2015-Jul-01 14:33N 26°01' W 079°53'1110.8
2015-Jul-01 13:33N 25°58' W 079°41'1010.3
2015-Jul-01 12:33N 25°56' W 079°30'3110.2
2015-Jul-01 09:33N 25°47' W 078°57'  
2015-Jun-28 00:23N 25°57' W 079°33'8 9.1
2015-Jun-27 23:33N 25°59' W 079°41'9 8.9
2015-Jun-27 22:33N 26°02' W 079°51'9 8.6
2015-Jun-27 21:33N 26°04' W 080°00'7 6.5
2015-Jun-27 20:33N 26°04' W 080°07'0 0.5
2015-Jun-27 19:33N 26°04' W 080°08'0 0.0
2015-Jun-27 18:33N 26°04' W 080°08'0 0.0
2015-Jun-27 17:33N 26°04' W 080°08'0 0.0
2015-Jun-27 16:33N 26°04' W 080°08'0 0.0
2015-Jun-27 15:33N 26°04' W 080°08'0 0.0
2015-Jun-27 14:33N 26°04' W 080°08'0 0.0
2015-Jun-27 13:33N 26°04' W 080°08'0 0.0
2015-Jun-27 12:33N 26°04' W 080°08'0 0.0
2015-Jun-27 11:33N 26°04' W 080°08'6 5.9
2015-Jun-27 10:33N 26°04' W 080°01'1111.0
2015-Jun-27 09:33N 25°58' W 079°51'1111.0
2015-Jun-27 08:33N 25°53' W 079°40'1 0.1
2015-Jun-26 20:30N 25°53' W 079°39'8 8.2
2015-Jun-26 19:33N 25°56' W 079°47'8 7.8
2015-Jun-26 18:32N 26°00' W 079°54'8 7.8
2015-Jun-26 17:33N 26°04' W 080°02'5 5.4
2015-Jun-26 16:33N 26°04' W 080°08'0 0.0
2015-Jun-26 15:33N 26°04' W 080°08'0 0.0
2015-Jun-26 14:33N 26°04' W 080°08'0 0.0
2015-Jun-26 13:33N 26°04' W 080°08'0 0.0
2015-Jun-26 12:33N 26°04' W 080°08'0 0.0
2015-Jun-26 11:33N 26°04' W 080°08'4 3.6
2015-Jun-26 10:33N 26°05' W 080°04'1110.4
2015-Jun-26 09:33N 25°60' W 079°54'1110.8
2015-Jun-26 08:33N 25°55' W 079°43'1110.8
2015-Jun-26 07:33N 25°50' W 079°33'9 0.4
2015-Jun-25 06:32N 25°50' W 079°43'7 7.0
2015-Jun-25 05:33N 25°55' W 079°49'7 6.6
2015-Jun-25 04:33N 25°59' W 079°55'7 6.7
2015-Jun-25 03:33N 26°02' W 080°01'6 5.8
2015-Jun-25 02:33N 26°04' W 080°07'1 1.1
2015-Jun-25 01:33N 26°04' W 080°08'0 0.0
2015-Jun-25 00:33N 26°04' W 080°08'0 0.0
2015-Jun-24 23:33N 26°04' W 080°08'0 0.0
2015-Jun-24 22:33N 26°04' W 080°08'0 0.1
2015-Jun-24 21:33N 26°04' W 080°08'6 6.2
2015-Jun-24 20:33N 26°05' W 080°01'9 9.3
2015-Jun-24 19:33N 26°05' W 079°51'10 9.6
2015-Jun-24 18:33N 26°05' W 079°40'10 9.5
2015-Jun-24 17:33N 26°05' W 079°29'11 0.9
2015-Jun-24 05:14N 26°16' W 079°32'710.8
2015-Jun-24 04:33N 26°13' W 079°40'1110.9
2015-Jun-24 03:33N 26°10' W 079°51'1111.0
2015-Jun-24 02:33N 26°06' W 080°03'5 5.1
2015-Jun-24 01:33N 26°04' W 080°08'0 0.0
2015-Jun-24 00:33N 26°04' W 080°08'0 0.0
2015-Jun-23 23:33N 26°04' W 080°08'0 0.0
2015-Jun-23 22:33N 26°04' W 080°08'0 0.0
2015-Jun-23 21:33N 26°04' W 080°08'6 6.3
2015-Jun-23 20:33N 26°05' W 080°01'  

Dump ship's entire track history